Time;durP1;ratioP1;P1;durP2;ratioP2;P2;SDS_P1;SDS_P2;PMS_P1;PMS_P2;Temp;Humidity;BMP_temperature;BMP_pressure;BME280_temperature;BME280_humidity;BME280_pressure;Samples;Min_cycle;Max_cycle;Signal;HPM_P1;HPM_P2
2022/10/02 05:17:55;;;;;;;0.60;0.60;;;19.20;99.90;;;;;;5150616;27;20542;-68
2022/10/02 05:20:48;;;;;;;1.30;0.70;;;19.20;99.90;;;;;;5150789;27;20466;-65
2022/10/02 05:23:31;;;;;;;0.90;0.90;;;19.30;99.90;;;;;;5150786;27;20446;-65
2022/10/02 05:26:22;;;;;;;0.80;0.80;;;19.30;99.90;;;;;;5150018;27;20535;-65
2022/10/02 05:29:12;;;;;;;0.80;0.70;;;19.30;99.90;;;;;;5150986;27;20530;-65
2022/10/02 05:31:53;;;;;;;1.80;1.00;;;19.40;99.90;;;;;;5145249;27;20836;-68
2022/10/02 05:34:44;;;;;;;0.93;0.60;;;19.40;99.90;;;;;;5145042;27;20523;-67
2022/10/02 05:37:28;;;;;;;0.77;0.70;;;19.50;99.90;;;;;;5131368;27;20477;-67
2022/10/02 05:40:01;;;;;;;1.70;1.10;;;19.50;99.90;;;;;;5132118;27;20465;-70
2022/10/02 05:42:35;;;;;;;1.30;1.20;;;19.50;99.90;;;;;;5135017;27;20539;-69
2022/10/02 05:45:05;;;;;;;0.67;0.60;;;19.50;99.90;;;;;;5153422;27;20524;-69
2022/10/02 05:47:38;;;;;;;1.17;0.60;;;19.50;99.90;;;;;;5153953;27;20764;-65
2022/10/02 05:50:16;;;;;;;3.17;0.83;;;19.60;99.90;;;;;;5154811;27;20460;-68
2022/10/02 05:52:50;;;;;;;1.53;1.20;;;19.60;99.90;;;;;;5154784;27;20530;-68
2022/10/02 05:55:20;;;;;;;2.63;0.90;;;19.60;99.90;;;;;;5141493;27;20444;-68
2022/10/02 05:57:52;;;;;;;0.97;0.90;;;19.60;99.90;;;;;;5131366;27;20523;-71
2022/10/02 06:00:30;;;;;;;3.63;1.53;;;19.60;99.90;;;;;;5133071;27;20867;-70
2022/10/02 06:03:08;;;;;;;0.90;0.80;;;19.70;99.90;;;;;;5130710;27;20445;-65
2022/10/02 06:05:43;;;;;;;0.90;0.90;;;19.70;99.90;;;;;;5133285;27;20497;-69
2022/10/02 06:08:14;;;;;;;1.13;1.13;;;19.70;99.90;;;;;;5133301;27;20523;-66
2022/10/02 06:10:46;;;;;;;1.27;1.10;;;19.70;99.90;;;;;;5133951;27;20804;-67
2022/10/02 06:13:22;;;;;;;0.80;0.80;;;19.80;99.90;;;;;;5134199;27;20980;-67
2022/10/02 06:15:52;;;;;;;0.60;0.60;;;19.80;99.90;;;;;;5135482;27;20572;-69
2022/10/02 06:18:22;;;;;;;0.80;0.80;;;19.80;99.90;;;;;;5132093;27;20531;-65
2022/10/02 06:20:54;;;;;;;1.23;1.10;;;19.80;99.90;;;;;;5151499;27;20467;-70
2022/10/02 06:23:26;;;;;;;0.80;0.80;;;19.80;99.90;;;;;;5150044;27;20440;-68
2022/10/02 06:25:56;;;;;;;0.77;0.77;;;19.90;99.90;;;;;;5150459;27;20442;-66
2022/10/02 06:28:28;;;;;;;0.80;0.80;;;19.90;99.90;;;;;;5139357;27;20945;-69
2022/10/02 06:31:01;;;;;;;0.80;0.80;;;19.90;99.90;;;;;;5132243;27;20556;-65
2022/10/02 06:33:31;;;;;;;1.67;1.03;;;20.00;99.90;;;;;;5119931;27;20454;-65
2022/10/02 06:36:31;;;;;;;1.30;1.00;;;20.00;99.90;;;;;;5116094;28;20488;-65
2022/10/02 06:39:18;;;;;;;0.50;0.50;;;20.00;99.90;;;;;;5116290;28;20516;-65
2022/10/02 06:41:54;;;;;;;0.80;0.80;;;20.00;99.90;;;;;;5115910;27;20540;-66
2022/10/02 06:44:26;;;;;;;0.80;0.70;;;20.00;99.90;;;;;;5129915;27;20440;-66
2022/10/02 06:47:06;;;;;;;0.80;0.70;;;20.00;99.90;;;;;;5136558;27;20428;-66
2022/10/02 06:49:45;;;;;;;1.03;1.03;;;20.10;99.90;;;;;;5138864;27;20433;-66
2022/10/02 06:52:21;;;;;;;0.60;0.60;;;20.20;99.90;;;;;;5128830;27;20461;-70
2022/10/02 06:55:06;;;;;;;0.70;0.70;;;20.30;99.90;;;;;;5115179;28;20451;-69
2022/10/02 06:57:47;;;;;;;0.90;0.73;;;20.30;99.90;;;;;;5114342;28;20481;-68
2022/10/02 07:00:17;;;;;;;0.70;0.70;;;20.40;99.90;;;;;;5114489;28;20465;-69
2022/10/02 07:03:15;;;;;;;0.63;0.60;;;20.40;99.90;;;;;;5129353;27;20437;-68
2022/10/02 07:06:09;;;;;;;1.67;0.70;;;20.40;99.90;;;;;;5134965;27;20471;-68
2022/10/02 07:08:49;;;;;;;0.70;0.70;;;20.50;99.90;;;;;;5132144;27;20451;-67
2022/10/02 07:11:23;;;;;;;1.33;0.80;;;20.50;99.90;;;;;;5134736;27;20994;-68
2022/10/02 07:14:05;;;;;;;1.00;0.90;;;20.60;99.90;;;;;;5129982;27;20430;-67
2022/10/02 07:16:55;;;;;;;0.70;0.67;;;20.60;99.90;;;;;;5120403;27;20484;-64
2022/10/02 07:19:49;;;;;;;0.80;0.80;;;20.70;99.90;;;;;;5134742;27;20437;-65
2022/10/02 07:22:33;;;;;;;0.70;0.70;;;20.80;99.90;;;;;;5134701;27;20445;-65
2022/10/02 07:25:25;;;;;;;1.50;0.80;;;20.90;99.90;;;;;;5132688;27;20532;-63
2022/10/02 07:27:59;;;;;;;0.60;0.60;;;20.90;99.90;;;;;;5133213;27;20443;-66
2022/10/02 07:30:34;;;;;;;0.60;0.60;;;21.00;99.90;;;;;;5113916;28;20850;-66
2022/10/02 07:33:14;;;;;;;1.23;1.00;;;21.00;99.90;;;;;;5113708;28;20528;-66
2022/10/02 07:35:50;;;;;;;0.60;0.60;;;21.10;99.90;;;;;;5113908;28;20481;-66
2022/10/02 07:38:47;;;;;;;0.60;0.60;;;21.10;99.90;;;;;;5125531;27;20433;-65
2022/10/02 07:41:54;;;;;;;1.33;1.10;;;21.20;99.90;;;;;;5133964;27;20564;-65
2022/10/02 07:44:39;;;;;;;0.93;0.83;;;21.20;99.90;;;;;;5134240;27;20820;-66
2022/10/02 07:47:14;;;;;;;0.83;0.70;;;21.20;99.90;;;;;;5117587;27;20802;-67
2022/10/02 07:49:51;;;;;;;1.00;1.00;;;21.20;99.90;;;;;;5113599;28;20460;-66
2022/10/02 07:52:25;;;;;;;1.00;0.90;;;21.20;99.90;;;;;;5113497;28;20984;-67
2022/10/02 07:55:17;;;;;;;0.70;0.70;;;21.20;99.90;;;;;;5113487;28;20452;-65
2022/10/02 07:57:54;;;;;;;0.60;0.60;;;21.20;99.90;;;;;;5113110;28;20484;-66
2022/10/02 08:00:24;;;;;;;1.15;0.70;;;21.20;99.90;;;;;;5112949;28;20426;-63
2022/10/02 08:02:56;;;;;;;1.73;1.37;;;21.10;99.90;;;;;;5113551;28;20207;-65
2022/10/02 08:05:26;;;;;;;0.80;0.80;;;21.20;99.90;;;;;;5113317;28;20446;-66
2022/10/02 08:07:56;;;;;;;0.70;0.70;;;21.30;99.90;;;;;;5112191;28;20452;-68
2022/10/02 08:10:26;;;;;;;1.73;0.93;;;21.30;99.90;;;;;;5112592;28;20499;-67
2022/10/02 08:13:00;;;;;;;0.70;0.70;;;21.40;99.90;;;;;;5113058;28;20442;-69
2022/10/02 08:15:33;;;;;;;0.70;0.70;;;21.40;99.90;;;;;;5112716;28;20448;-67
2022/10/02 08:18:05;;;;;;;0.80;0.80;;;21.40;99.90;;;;;;5112765;27;20484;-69
2022/10/02 08:20:36;;;;;;;0.60;0.60;;;21.40;99.90;;;;;;5112765;28;20971;-69
2022/10/02 08:23:08;;;;;;;0.80;0.80;;;21.40;99.90;;;;;;5112872;28;20794;-66
2022/10/02 08:25:42;;;;;;;0.67;0.67;;;21.40;99.90;;;;;;5112927;28;20851;-66
2022/10/02 08:28:18;;;;;;;0.80;0.80;;;21.40;99.90;;;;;;5112649;28;20433;-64
2022/10/02 08:30:46;;;;;;;0.70;0.70;;;21.40;99.90;;;;;;5112797;28;20469;-64
2022/10/02 08:33:17;;;;;;;0.60;0.60;;;21.40;99.90;;;;;;5113195;28;20473;-65
2022/10/02 08:35:55;;;;;;;1.00;1.00;;;21.40;99.90;;;;;;5112847;28;20453;-66
2022/10/02 08:38:40;;;;;;;0.73;0.53;;;21.40;99.90;;;;;;5112529;28;20477;-66
2022/10/02 08:42:03;;;;;;;0.83;0.83;;;21.40;99.90;;;;;;5112695;28;20461;-65
2022/10/02 08:45:08;;;;;;;0.80;0.67;;;21.40;99.90;;;;;;5110726;28;20522;-65
2022/10/02 08:48:34;;;;;;;0.70;0.70;;;21.40;99.90;;;;;;5112122;28;20441;-66
2022/10/02 08:51:30;;;;;;;0.57;0.57;;;21.50;99.90;;;;;;4951242;28;20874;-66
2022/10/02 08:54:33;;;;;;;0.93;0.70;;;21.50;99.90;;;;;;5108797;28;20445;-64
2022/10/02 08:57:13;;;;;;;0.60;0.60;;;21.50;99.90;;;;;;5096639;28;20555;-66
2022/10/02 09:00:17;;;;;;;1.57;0.70;;;21.50;99.90;;;;;;5112202;28;20810;-66
2022/10/02 09:03:27;;;;;;;0.50;0.50;;;21.50;99.90;;;;;;5109836;28;20451;-65
2022/10/02 09:06:42;;;;;;;0.67;0.67;;;21.50;99.90;;;;;;5112190;28;20452;-66
2022/10/02 09:10:02;;;;;;;2.20;1.20;;;21.50;99.90;;;;;;5111808;28;20522;-67
2022/10/02 09:13:02;;;;;;;0.60;0.60;;;21.50;99.90;;;;;;5112166;28;20529;-68
2022/10/02 09:15:44;;;;;;;1.17;1.07;;;21.50;99.90;;;;;;5112048;28;20485;-67
2022/10/02 09:18:17;;;;;;;0.60;0.60;;;21.50;99.90;;;;;;5111854;28;20888;-69
2022/10/02 09:21:17;;;;;;;0.80;0.77;;;21.50;99.90;;;;;;5111798;28;20462;-65
2022/10/02 09:24:28;;;;;;;0.87;0.87;;;21.50;99.90;;;;;;5112126;28;20530;-65
2022/10/02 09:27:32;;;;;;;0.67;0.67;;;21.50;99.90;;;;;;5111750;28;20517;-66
2022/10/02 09:30:19;;;;;;;0.70;0.70;;;21.50;99.90;;;;;;5111977;28;20745;-68
2022/10/02 09:33:18;;;;;;;1.17;0.80;;;21.50;99.90;;;;;;5111364;28;20448;-66
2022/10/02 09:36:17;;;;;;;0.90;0.77;;;21.50;99.90;;;;;;5105738;28;20445;-66
2022/10/02 09:39:23;;;;;;;0.83;0.73;;;21.50;99.90;;;;;;5111760;28;20477;-67
2022/10/02 09:42:36;;;;;;;1.03;0.80;;;21.50;99.90;;;;;;5111715;28;20560;-66
2022/10/02 09:45:47;;;;;;;0.70;0.60;;;21.50;99.90;;;;;;5111679;28;20536;-67
2022/10/02 09:48:44;;;;;;;0.80;0.80;;;21.60;99.90;;;;;;5111724;28;20806;-65
2022/10/02 09:51:50;;;;;;;0.50;0.50;;;21.50;99.90;;;;;;5111702;28;20472;-69
2022/10/02 09:54:49;;;;;;;1.27;0.80;;;21.60;99.90;;;;;;5111711;28;20468;-69
2022/10/02 09:57:56;;;;;;;0.70;0.70;;;21.50;99.80;;;;;;5108995;28;20540;-69
2022/10/02 10:00:38;;;;;;;2.03;0.93;;;21.60;99.70;;;;;;5111627;28;20544;-64
2022/10/02 10:03:35;;;;;;;0.90;0.90;;;21.60;99.70;;;;;;5125228;27;20441;-63
2022/10/02 10:06:40;;;;;;;1.00;0.70;;;21.50;98.40;;;;;;5123341;27;20453;-65
2022/10/02 10:09:37;;;;;;;1.20;1.20;;;21.40;99.10;;;;;;5115424;28;20448;-66
2022/10/02 10:12:43;;;;;;;0.70;0.70;;;21.30;99.50;;;;;;5115462;27;20442;-67
2022/10/02 10:15:47;;;;;;;0.70;0.60;;;21.30;99.50;;;;;;5102057;27;20444;-66
2022/10/02 10:18:48;;;;;;;2.30;1.00;;;21.30;99.60;;;;;;5132448;27;20483;-67
2022/10/02 10:21:53;;;;;;;1.33;1.03;;;21.30;99.60;;;;;;5136149;27;20460;-66
2022/10/02 10:24:51;;;;;;;0.87;0.87;;;21.20;99.00;;;;;;5135778;27;20440;-67
2022/10/02 10:27:38;;;;;;;1.80;0.93;;;21.30;99.90;;;;;;5130683;27;20432;-68
2022/10/02 10:30:28;;;;;;;1.20;1.10;;;21.30;99.90;;;;;;5118960;27;20469;-68
2022/10/02 10:33:26;;;;;;;1.40;0.87;;;21.30;99.90;;;;;;5115090;28;20442;-67
2022/10/02 10:39:34;;;;;;;2.47;1.37;;;21.30;99.90;;;;;;5125216;27;20468;-61
2022/10/02 10:42:24;;;;;;;0.90;0.90;;;21.30;99.80;;;;;;5133535;27;20537;-66
2022/10/02 10:45:19;;;;;;;0.63;0.63;;;21.30;99.70;;;;;;5136533;27;20440;-65
2022/10/02 10:48:13;;;;;;;0.97;0.97;;;21.30;99.50;;;;;;5111153;27;20477;-63
2022/10/02 10:50:52;;;;;;;1.20;1.17;;;21.30;99.10;;;;;;5134077;27;21002;-63
2022/10/02 10:53:48;;;;;;;0.60;0.60;;;21.30;98.90;;;;;;5118485;28;20464;-65
2022/10/02 10:56:36;;;;;;;1.53;0.90;;;21.30;99.10;;;;;;5114952;28;21026;-71
2022/10/02 10:59:28;;;;;;;6.63;1.40;;;21.20;99.40;;;;;;5120635;27;20468;-64
2022/10/02 11:02:14;;;;;;;4.27;1.70;;;21.20;99.40;;;;;;5137629;27;20551;-63
2022/10/02 11:05:00;;;;;;;9.57;3.87;;;21.20;99.70;;;;;;5129514;27;20451;-66
2022/10/02 11:07:45;;;;;;;7.10;3.37;;;21.20;99.90;;;;;;5126986;27;20441;-69
2022/10/02 11:10:25;;;;;;;9.70;4.47;;;21.20;99.90;;;;;;5135126;27;20475;-69
2022/10/02 11:13:03;;;;;;;6.63;3.17;;;21.20;99.90;;;;;;5135079;27;20459;-70
2022/10/02 11:16:05;;;;;;;9.00;4.70;;;21.20;99.90;;;;;;5135303;27;20448;-66
2022/10/02 11:19:03;;;;;;;9.37;3.70;;;21.20;99.90;;;;;;5114788;27;20481;-67
2022/10/02 11:22:05;;;;;;;19.00;4.67;;;21.20;99.90;;;;;;5112924;28;20481;-68
2022/10/02 11:25:18;;;;;;;9.53;5.47;;;21.20;99.90;;;;;;5115297;28;20937;-67
2022/10/02 11:28:34;;;;;;;11.43;6.37;;;21.20;99.90;;;;;;5072711;28;20450;-68
2022/10/02 11:31:19;;;;;;;14.07;6.93;;;21.20;99.90;;;;;;5122034;27;20508;-67
2022/10/02 11:34:09;;;;;;;7.97;5.10;;;21.20;99.90;;;;;;5113908;28;20461;-68
2022/10/02 11:36:59;;;;;;;10.23;5.00;;;21.20;99.90;;;;;;5113865;28;20532;-68
2022/10/02 11:39:56;;;;;;;10.57;6.33;;;21.20;99.90;;;;;;5113683;28;20434;-67
2022/10/02 11:42:51;;;;;;;9.17;4.70;;;21.30;99.90;;;;;;5129541;27;20463;-67
2022/10/02 11:45:42;;;;;;;11.50;6.67;;;21.30;99.90;;;;;;5134381;27;20803;-66
2022/10/02 11:48:26;;;;;;;11.70;5.00;;;21.30;99.90;;;;;;5124606;27;20448;-66
2022/10/02 11:51:11;;;;;;;9.50;5.00;;;21.30;99.90;;;;;;5134226;27;20467;-67
2022/10/02 11:54:14;;;;;;;9.93;7.10;;;21.30;99.90;;;;;;5122621;27;20537;-67
2022/10/02 11:57:04;;;;;;;11.30;5.50;;;21.30;99.90;;;;;;5113288;28;20870;-66
2022/10/02 11:59:53;;;;;;;7.57;4.33;;;21.30;99.90;;;;;;5092735;28;20576;-67
2022/10/02 12:02:26;;;;;;;8.27;4.80;;;21.30;99.90;;;;;;5127251;27;20437;-65
2022/10/02 12:05:14;;;;;;;10.33;4.87;;;21.30;99.90;;;;;;5133785;27;20447;-66
2022/10/02 12:07:51;;;;;;;8.03;4.30;;;21.30;99.90;;;;;;5133777;27;20446;-70
2022/10/02 12:10:31;;;;;;;5.77;3.97;;;21.30;99.90;;;;;;5133941;27;20470;-71
2022/10/02 12:13:14;;;;;;;7.97;4.23;;;21.30;99.90;;;;;;5114512;27;21052;-68
2022/10/02 12:15:49;;;;;;;7.87;4.87;;;21.30;99.90;;;;;;5113060;28;20977;-67
2022/10/02 12:18:35;;;;;;;13.00;5.53;;;21.30;99.90;;;;;;5112541;28;21012;-67
2022/10/02 12:27:10;;;;;;;7.10;3.80;;;21.30;99.90;;;;;;5132913;27;20412;-67
2022/10/02 12:30:04;;;;;;;8.17;3.80;;;21.30;99.90;;;;;;5133345;27;20872;-67
2022/10/02 12:32:51;;;;;;;7.73;4.90;;;21.30;99.90;;;;;;5115329;27;20448;-67
2022/10/02 12:35:30;;;;;;;4.60;3.53;;;21.30;99.90;;;;;;5112674;28;20445;-68
2022/10/02 12:38:12;;;;;;;5.90;5.30;;;21.30;99.90;;;;;;5112469;28;20479;-68
2022/10/02 12:40:46;;;;;;;6.03;3.40;;;21.30;99.90;;;;;;5113763;27;20464;-69
2022/10/02 12:43:52;;;;;;;5.80;4.20;;;21.30;99.90;;;;;;5133314;27;20966;-68
2022/10/02 12:46:30;;;;;;;5.30;3.70;;;21.40;99.90;;;;;;5122276;27;20476;-69
2022/10/02 12:49:19;;;;;;;3.70;3.27;;;21.40;99.90;;;;;;5112756;28;20434;-67
2022/10/02 12:52:04;;;;;;;8.40;3.77;;;21.40;99.90;;;;;;5125720;27;20518;-68
2022/10/02 12:55:12;;;;;;;6.60;4.37;;;21.40;99.90;;;;;;5133027;27;20494;-68
2022/10/02 12:58:10;;;;;;;4.20;2.80;;;21.40;99.90;;;;;;5132394;27;20451;-67
2022/10/02 13:01:04;;;;;;;4.83;3.37;;;21.40;99.90;;;;;;5115053;27;20462;-69
2022/10/02 13:04:08;;;;;;;6.80;2.90;;;21.40;99.90;;;;;;5112366;28;20452;-70
2022/10/02 13:07:06;;;;;;;4.07;2.60;;;21.40;99.90;;;;;;5112255;28;20537;-68
2022/10/02 13:09:43;;;;;;;3.37;2.40;;;21.40;99.90;;;;;;5116659;28;20433;-62
2022/10/02 13:12:31;;;;;;;5.20;3.40;;;21.40;99.90;;;;;;5117025;28;20501;-62
2022/10/02 13:15:23;;;;;;;4.70;3.80;;;21.30;99.90;;;;;;5115806;28;20453;-62
2022/10/02 13:18:00;;;;;;;4.30;3.20;;;21.40;99.90;;;;;;5122943;28;21077;-62
2022/10/02 13:20:37;;;;;;;10.27;3.60;;;21.40;99.90;;;;;;5135528;27;20474;-63
2022/10/02 13:23:18;;;;;;;11.10;4.60;;;21.40;99.90;;;;;;5135651;27;20440;-62
2022/10/02 13:25:59;;;;;;;13.83;5.97;;;21.40;99.90;;;;;;5133981;27;20436;-64
2022/10/02 13:28:58;;;;;;;13.43;6.07;;;21.40;99.90;;;;;;5133200;27;20439;-63
2022/10/02 13:31:40;;;;;;;14.90;5.30;;;21.40;99.90;;;;;;5113739;28;20537;-63
2022/10/02 13:34:25;;;;;;;18.70;6.23;;;21.40;99.90;;;;;;5113446;28;20528;-63
2022/10/02 13:37:14;;;;;;;19.00;6.13;;;21.50;99.90;;;;;;5114119;28;20445;-63
2022/10/02 13:39:57;;;;;;;8.73;4.03;;;21.50;99.90;;;;;;5117717;28;20891;-63
2022/10/02 13:42:35;;;;;;;11.83;5.00;;;21.50;99.90;;;;;;5118983;27;20973;-64
2022/10/02 13:45:15;;;;;;;13.53;4.40;;;21.50;99.90;;;;;;5117273;28;20442;-64
2022/10/02 13:47:50;;;;;;;9.93;4.23;;;21.50;99.90;;;;;;5117012;28;20958;-66
2022/10/02 13:50:36;;;;;;;10.73;4.60;;;21.50;99.90;;;;;;5116860;28;20499;-65
2022/10/02 13:53:21;;;;;;;17.33;5.53;;;21.50;99.90;;;;;;5119436;27;20448;-65
2022/10/02 13:55:52;;;;;;;10.93;4.65;;;21.50;99.90;;;;;;5137674;27;20429;-67
2022/10/02 13:58:44;;;;;;;6.03;3.80;;;21.50;99.90;;;;;;5137082;27;20254;-63
2022/10/02 14:01:24;;;;;;;9.80;5.40;;;21.50;99.90;;;;;;5137204;27;20468;-64
2022/10/02 14:04:09;;;;;;;10.40;3.90;;;21.60;99.90;;;;;;5137294;27;20483;-67
2022/10/02 14:06:41;;;;;;;9.20;4.67;;;21.60;99.90;;;;;;5131308;27;20497;-67
2022/10/02 14:09:22;;;;;;;11.03;4.47;;;21.60;99.90;;;;;;5116735;28;20513;-67
2022/10/02 14:11:59;;;;;;;10.43;4.00;;;21.60;99.90;;;;;;5117043;27;20466;-67
2022/10/02 14:14:41;;;;;;;6.73;4.70;;;21.50;99.90;;;;;;5116759;28;20842;-64
2022/10/02 14:17:21;;;;;;;7.00;3.60;;;21.50;99.90;;;;;;5116975;27;20448;-69
2022/10/02 14:20:06;;;;;;;10.20;4.23;;;21.50;99.90;;;;;;5116643;28;20481;-65
2022/10/02 14:22:45;;;;;;;5.50;3.43;;;21.50;99.90;;;;;;5116689;28;20441;-67
2022/10/02 14:25:45;;;;;;;5.77;4.10;;;21.50;99.90;;;;;;5118472;28;20452;-66
2022/10/02 14:28:54;;;;;;;11.93;4.07;;;21.50;99.90;;;;;;5115550;28;20857;-67
2022/10/02 14:31:50;;;;;;;5.40;3.40;;;21.50;99.90;;;;;;5110405;27;20479;-67
2022/10/02 14:34:49;;;;;;;5.20;3.20;;;21.50;99.90;;;;;;5133378;27;20523;-66
2022/10/02 14:37:43;;;;;;;7.43;4.20;;;21.50;99.90;;;;;;5109488;27;20452;-67
2022/10/02 14:40:15;;;;;;;5.60;3.00;;;21.50;99.90;;;;;;5135957;27;20575;-69
2022/10/02 14:43:00;;;;;;;4.93;3.60;;;21.50;99.90;;;;;;5124096;27;20863;-69
2022/10/02 14:46:07;;;;;;;7.30;3.70;;;21.50;99.90;;;;;;5115096;28;20502;-68
2022/10/02 14:49:00;;;;;;;6.10;4.07;;;21.50;99.90;;;;;;5093448;28;20450;-68
2022/10/02 14:51:50;;;;;;;10.97;5.20;;;21.50;99.90;;;;;;5115492;28;20465;-66
2022/10/02 14:54:37;;;;;;;6.63;3.33;;;21.50;99.90;;;;;;5117097;27;20533;-67
2022/10/02 14:57:24;;;;;;;14.17;3.50;;;21.50;99.90;;;;;;5118216;27;21029;-67
2022/10/02 15:00:04;;;;;;;5.77;3.17;;;21.50;99.90;;;;;;5116211;28;20572;-67
2022/10/02 15:02:57;;;;;;;4.53;2.83;;;21.50;99.90;;;;;;5116055;28;20536;-68
2022/10/02 15:05:52;;;;;;;6.80;4.37;;;21.50;99.90;;;;;;5116572;28;20862;-67
2022/10/02 15:08:27;;;;;;;9.17;3.63;;;21.50;99.90;;;;;;5115585;28;20520;-67
2022/10/02 15:10:54;;;;;;;4.63;3.33;;;21.50;99.90;;;;;;5115472;28;20544;-67
2022/10/02 15:13:30;;;;;;;5.83;3.33;;;21.50;99.90;;;;;;5116915;28;20521;-72
2022/10/02 15:19:01;;;;;;;4.73;2.57;;;21.50;99.90;;;;;;5115325;28;20218;-69
2022/10/02 15:21:33;;;;;;;4.40;2.40;;;21.70;99.90;;;;;;5114941;28;21113;-74
2022/10/02 15:24:25;;;;;;;5.57;2.67;;;21.70;99.90;;;;;;5114785;28;20442;-75
2022/10/02 15:26:59;;;;;;;5.43;2.43;;;21.70;99.90;;;;;;5114639;28;20452;-67
2022/10/02 15:29:38;;;;;;;2.73;2.40;;;21.70;99.90;;;;;;5114614;28;20535;-69
2022/10/02 15:32:30;;;;;;;3.40;2.40;;;21.80;99.90;;;;;;5113942;28;20452;-67
2022/10/02 15:35:10;;;;;;;5.60;2.93;;;21.80;99.90;;;;;;5114963;28;20498;-67
2022/10/02 15:37:50;;;;;;;4.50;2.70;;;21.80;99.90;;;;;;5114442;27;20452;-68
2022/10/02 15:40:27;;;;;;;5.03;2.47;;;21.80;99.90;;;;;;5113896;28;20491;-67
2022/10/02 15:42:56;;;;;;;5.20;2.80;;;21.80;99.90;;;;;;5113722;28;20536;-67
2022/10/02 15:45:42;;;;;;;2.97;2.03;;;21.80;99.90;;;;;;5114211;28;20445;-69
2022/10/02 15:48:36;;;;;;;6.27;2.30;;;21.80;99.90;;;;;;5133219;27;20441;-73
2022/10/02 15:51:15;;;;;;;4.10;2.53;;;21.80;99.90;;;;;;5135465;27;20551;-67
2022/10/02 15:53:57;;;;;;;5.63;3.03;;;21.70;99.90;;;;;;5134234;27;20809;-67
2022/10/02 15:56:44;;;;;;;3.63;3.43;;;21.70;99.90;;;;;;5125048;27;20453;-69
2022/10/02 15:59:30;;;;;;;3.90;2.40;;;21.70;99.90;;;;;;5115857;28;20477;-67
2022/10/02 16:02:15;;;;;;;3.67;2.53;;;21.70;99.90;;;;;;5115691;28;20842;-69
2022/10/02 16:04:53;;;;;;;4.97;2.77;;;21.70;99.90;;;;;;5115429;28;20839;-67
2022/10/02 16:07:49;;;;;;;4.13;2.70;;;21.80;99.90;;;;;;5114117;28;20522;-67
2022/10/02 16:10:24;;;;;;;3.77;2.13;;;21.80;99.90;;;;;;5111489;28;20461;-67
2022/10/02 16:13:21;;;;;;;3.27;3.00;;;21.80;99.90;;;;;;5113701;28;20441;-67
2022/10/02 16:15:52;;;;;;;2.50;2.03;;;21.80;99.90;;;;;;5113526;28;20452;-67
2022/10/02 16:18:39;;;;;;;3.43;2.53;;;21.80;99.90;;;;;;5113526;28;20540;-62
2022/10/02 16:21:32;;;;;;;4.90;2.30;;;21.80;99.90;;;;;;5113935;28;20537;-64
2022/10/02 16:24:13;;;;;;;5.30;2.67;;;21.80;99.90;;;;;;5118603;28;20452;-62
2022/10/02 16:27:07;;;;;;;4.00;2.67;;;21.80;99.90;;;;;;5116401;28;20505;-63
2022/10/02 16:29:46;;;;;;;5.83;2.67;;;21.70;99.90;;;;;;5114133;28;21040;-68
2022/10/02 16:32:23;;;;;;;1.83;1.73;;;21.70;99.90;;;;;;5113128;28;20473;-62
2022/10/02 16:35:10;;;;;;;5.87;3.40;;;21.70;99.90;;;;;;5112851;28;20524;-69
2022/10/02 16:37:45;;;;;;;2.27;2.07;;;21.70;99.90;;;;;;5112741;28;20433;-68
2022/10/02 16:40:25;;;;;;;2.20;2.00;;;21.70;99.90;;;;;;5113010;27;20974;-69
2022/10/02 16:43:11;;;;;;;3.40;2.33;;;21.70;99.90;;;;;;5112930;28;20473;-71
2022/10/02 16:45:56;;;;;;;2.90;2.30;;;21.70;99.90;;;;;;5112970;28;20452;-71
2022/10/02 16:48:26;;;;;;;1.80;1.70;;;21.70;99.90;;;;;;5112665;28;20445;-71
2022/10/02 16:51:14;;;;;;;2.63;2.20;;;21.80;99.90;;;;;;5117024;27;20455;-70
2022/10/02 16:53:47;;;;;;;1.70;1.60;;;21.80;99.90;;;;;;5129535;27;20558;-70
2022/10/02 16:56:18;;;;;;;3.70;2.13;;;21.80;99.90;;;;;;5133574;27;20875;-70
2022/10/02 16:58:54;;;;;;;2.83;2.30;;;21.80;99.90;;;;;;5133171;27;20473;-71
2022/10/02 17:01:30;;;;;;;2.53;1.87;;;21.80;99.90;;;;;;5133359;27;20470;-71
2022/10/02 17:04:20;;;;;;;1.90;1.77;;;21.70;99.90;;;;;;5114516;27;20875;-69
2022/10/02 17:06:52;;;;;;;1.87;1.77;;;21.80;99.90;;;;;;5112491;28;20528;-69
2022/10/02 17:09:26;;;;;;;2.17;1.97;;;21.80;99.90;;;;;;5112683;28;20529;-70
2022/10/02 17:12:01;;;;;;;2.70;1.90;;;21.80;99.90;;;;;;5116317;27;20457;-70
2022/10/02 17:14:39;;;;;;;2.20;1.80;;;21.80;99.90;;;;;;5112531;28;20533;-71
2022/10/02 17:17:17;;;;;;;3.60;2.10;;;21.80;99.90;;;;;;5111944;28;20826;-70
2022/10/02 17:19:48;;;;;;;1.77;1.67;;;21.80;99.90;;;;;;5112400;28;20483;-70
2022/10/02 17:22:32;;;;;;;3.27;1.80;;;21.80;99.90;;;;;;5129972;28;20483;-68
2022/10/02 17:25:13;;;;;;;2.87;2.00;;;21.80;99.90;;;;;;5133153;27;20536;-69
2022/10/02 17:27:50;;;;;;;2.23;1.53;;;21.80;99.90;;;;;;5132809;27;20523;-71
2022/10/02 17:30:22;;;;;;;2.70;1.63;;;21.80;99.90;;;;;;5133239;27;20568;-72
2022/10/02 17:33:00;;;;;;;2.37;1.90;;;21.80;99.90;;;;;;5131087;27;20852;-71
2022/10/02 17:35:47;;;;;;;1.73;1.27;;;21.80;99.90;;;;;;5132797;27;21005;-72
2022/10/02 17:38:37;;;;;;;1.43;1.33;;;21.80;99.90;;;;;;5132745;27;20938;-69
2022/10/02 17:41:22;;;;;;;2.00;1.67;;;21.80;99.90;;;;;;5132574;27;20476;-69
2022/10/02 17:43:58;;;;;;;1.50;1.40;;;21.80;99.90;;;;;;5120086;27;20482;-69
2022/10/02 17:46:42;;;;;;;1.77;1.63;;;21.80;99.90;;;;;;5112444;28;21025;-71
2022/10/02 17:49:21;;;;;;;1.67;1.57;;;21.80;99.90;;;;;;5112094;28;20433;-71
2022/10/02 17:51:56;;;;;;;3.07;2.23;;;21.80;99.90;;;;;;5111874;28;20544;-70
2022/10/02 17:57:50;;;;;;;1.63;1.53;;;21.80;99.90;;;;;;5111847;28;20417;-70
2022/10/02 18:00:21;;;;;;;1.80;1.40;;;21.80;99.90;;;;;;5111709;28;20508;-70
2022/10/02 18:03:02;;;;;;;1.70;1.60;;;21.80;99.90;;;;;;5112015;28;20449;-71
2022/10/02 18:05:48;;;;;;;2.30;1.97;;;21.80;99.90;;;;;;5111917;28;20442;-75
2022/10/02 18:08:33;;;;;;;2.30;1.90;;;21.80;99.90;;;;;;5124146;28;20852;-70
2022/10/02 18:11:06;;;;;;;2.40;2.20;;;21.80;99.90;;;;;;5132395;27;20465;-72
2022/10/02 18:13:47;;;;;;;6.10;1.67;;;21.80;99.90;;;;;;5132785;27;20474;-71
2022/10/02 18:16:36;;;;;;;1.70;1.40;;;21.80;99.90;;;;;;5132224;27;20506;-69
2022/10/02 18:19:29;;;;;;;1.58;1.48;;;21.80;99.90;;;;;;5121900;27;20855;-65
2022/10/02 18:22:38;;;;;;;2.50;1.60;;;22.00;99.90;;;;;;5111705;28;20223;-65
2022/10/02 18:25:26;;;;;;;1.70;1.60;;;22.00;99.90;;;;;;5089630;28;20536;-65
2022/10/02 18:28:10;;;;;;;1.23;1.13;;;22.10;99.90;;;;;;5117168;27;20852;-62
2022/10/02 18:30:46;;;;;;;1.70;1.30;;;22.10;99.90;;;;;;5122756;27;20544;-69
2022/10/02 18:33:42;;;;;;;2.30;1.53;;;22.10;99.90;;;;;;5115380;28;20449;-69
2022/10/02 18:36:22;;;;;;;1.23;1.13;;;22.20;99.90;;;;;;5115797;28;20477;-70
2022/10/02 18:38:59;;;;;;;1.50;1.30;;;22.20;99.90;;;;;;5116560;28;20443;-68
2022/10/02 18:41:42;;;;;;;1.37;1.27;;;22.20;99.90;;;;;;5114828;28;20575;-66
2022/10/02 18:44:32;;;;;;;1.53;1.13;;;22.20;99.90;;;;;;5115121;28;20442;-65
2022/10/02 18:47:09;;;;;;;1.90;1.80;;;22.20;99.90;;;;;;5106383;28;20508;-66
2022/10/02 18:49:55;;;;;;;1.45;1.30;;;22.30;99.90;;;;;;5115138;27;20804;-63
2022/10/02 18:52:57;;;;;;;1.30;1.20;;;22.40;99.90;;;;;;5133764;27;20600;-64
2022/10/02 18:55:50;;;;;;;1.30;1.20;;;22.40;99.90;;;;;;5135479;27;20444;-66
2022/10/02 18:58:30;;;;;;;1.43;1.33;;;22.40;99.90;;;;;;5135227;27;20981;-66
2022/10/02 19:01:08;;;;;;;1.17;1.17;;;22.40;99.90;;;;;;5135080;27;20480;-65
2022/10/02 19:03:42;;;;;;;1.23;1.20;;;22.40;99.90;;;;;;5119376;27;20449;-65
2022/10/02 19:06:15;;;;;;;1.30;1.30;;;22.40;99.90;;;;;;5114473;28;20446;-66
2022/10/02 19:09:18;;;;;;;1.53;1.30;;;22.40;99.90;;;;;;5114475;28;20491;-67
2022/10/02 19:11:48;;;;;;;3.75;2.17;;;22.40;99.90;;;;;;5103979;27;20449;-64
2022/10/02 19:14:21;;;;;;;1.60;1.10;;;22.30;99.90;;;;;;5134991;27;20203;-63
2022/10/02 19:16:58;;;;;;;1.53;1.43;;;22.40;99.80;;;;;;5134699;27;20453;-64
2022/10/02 19:19:28;;;;;;;2.23;1.20;;;22.40;99.50;;;;;;5134707;27;20802;-65
2022/10/02 19:21:58;;;;;;;1.33;1.23;;;22.30;99.50;;;;;;5120154;27;20510;-71
2022/10/02 19:24:29;;;;;;;4.73;1.50;;;22.30;99.60;;;;;;5114505;28;20907;-69
2022/10/02 19:27:01;;;;;;;1.63;1.47;;;22.20;99.90;;;;;;5114060;28;20463;-67
2022/10/02 19:29:32;;;;;;;1.43;1.33;;;22.30;99.90;;;;;;5121754;27;20441;-65
2022/10/02 19:32:07;;;;;;;2.23;2.13;;;22.20;99.90;;;;;;5134782;27;20473;-65
2022/10/02 19:34:34;;;;;;;1.57;1.47;;;22.20;99.90;;;;;;5134612;27;20444;-66
2022/10/02 19:37:06;;;;;;;1.27;1.17;;;22.20;99.90;;;;;;5134297;27;20441;-66
2022/10/02 19:39:35;;;;;;;1.30;1.30;;;22.10;99.90;;;;;;5125795;27;20506;-67
2022/10/02 19:42:10;;;;;;;1.20;1.10;;;22.10;99.90;;;;;;5113839;28;20481;-65
2022/10/02 19:44:41;;;;;;;1.40;1.40;;;22.10;99.90;;;;;;5113882;28;20476;-67
2022/10/02 19:47:15;;;;;;;1.47;1.47;;;22.10;99.90;;;;;;5113493;28;20450;-67